Time;durP1;ratioP1;P1;durP2;ratioP2;P2;SDS_P1;SDS_P2;PMS_P1;PMS_P2;Temp;Humidity;BMP_temperature;BMP_pressure;BME280_temperature;BME280_humidity;BME280_pressure;Samples;Min_cycle;Max_cycle;Signal;HPM_P1;HPM_P2
2023/08/31 00:00:31;;;;;;;3.53;1.67;;;11.20;99.90;;;;;;5133066;27;20107;-57
2023/08/31 00:02:58;;;;;;;2.78;1.40;;;11.20;99.90;;;;;;5127359;27;20144;-57
2023/08/31 00:05:24;;;;;;;3.15;1.60;;;11.10;99.90;;;;;;5128348;27;20043;-57
2023/08/31 00:07:50;;;;;;;8.27;1.60;;;11.10;99.90;;;;;;5110150;27;20051;-57
2023/08/31 00:10:17;;;;;;;3.10;1.60;;;11.10;99.90;;;;;;5088524;27;1098771;-57
2023/08/31 00:12:43;;;;;;;3.42;1.65;;;11.00;99.90;;;;;;5136942;27;20058;-58
2023/08/31 00:15:10;;;;;;;4.30;1.95;;;11.00;99.90;;;;;;5125749;27;20408;-57
2023/08/31 00:17:36;;;;;;;3.00;1.48;;;11.00;99.90;;;;;;5131392;27;20202;-57
2023/08/31 00:20:05;;;;;;;2.20;1.58;;;11.00;99.90;;;;;;5108926;27;20579;-57
2023/08/31 00:22:31;;;;;;;2.22;1.55;;;11.00;99.90;;;;;;5128442;27;20059;-56
2023/08/31 00:24:57;;;;;;;3.85;1.80;;;11.00;99.90;;;;;;5127531;27;20062;-57
2023/08/31 00:27:23;;;;;;;2.47;1.45;;;11.10;99.90;;;;;;5093822;27;20051;-58
2023/08/31 00:29:49;;;;;;;2.90;1.75;;;11.10;99.90;;;;;;5127952;27;20059;-57
2023/08/31 00:32:15;;;;;;;2.65;2.20;;;11.10;99.90;;;;;;5127780;27;20130;-56
2023/08/31 00:34:41;;;;;;;4.80;2.42;;;11.10;99.90;;;;;;5129547;27;20055;-57
2023/08/31 00:37:10;;;;;;;2.72;1.77;;;11.10;99.90;;;;;;5126663;27;20043;-57
2023/08/31 00:39:36;;;;;;;6.95;2.20;;;11.20;99.90;;;;;;5129702;27;20054;-58
2023/08/31 00:42:02;;;;;;;3.75;1.67;;;11.10;99.90;;;;;;5126883;27;20058;-58
2023/08/31 00:44:28;;;;;;;8.57;2.42;;;11.10;99.90;;;;;;5130507;27;20087;-57
2023/08/31 00:46:54;;;;;;;4.20;1.67;;;11.10;99.90;;;;;;5127060;27;20058;-58
2023/08/31 00:49:20;;;;;;;5.82;1.70;;;11.10;99.90;;;;;;5129077;27;21560;-58
2023/08/31 00:51:48;;;;;;;3.83;1.35;;;11.10;99.90;;;;;;5130084;27;20527;-59
2023/08/31 00:54:16;;;;;;;4.93;1.67;;;11.10;99.90;;;;;;5124049;27;20050;-59
2023/08/31 00:56:42;;;;;;;3.65;1.60;;;11.10;99.90;;;;;;5132153;27;20047;-57
2023/08/31 00:59:09;;;;;;;1.63;1.20;;;11.10;99.90;;;;;;5128948;27;20059;-58
2023/08/31 01:01:51;;;;;;;2.88;1.40;;;11.10;99.90;;;;;;5133298;27;20043;-59
2023/08/31 01:04:36;;;;;;;3.45;1.33;;;11.10;99.90;;;;;;5126142;27;20463;-60
2023/08/31 01:07:11;;;;;;;2.47;1.42;;;11.10;99.90;;;;;;5127033;27;20519;-59
2023/08/31 01:09:48;;;;;;;3.03;1.45;;;11.10;99.90;;;;;;5126163;27;20074;-59
2023/08/31 01:12:22;;;;;;;3.92;1.40;;;11.00;99.90;;;;;;5125095;27;20055;-58
2023/08/31 01:15:04;;;;;;;2.42;1.35;;;11.00;99.90;;;;;;5131687;27;20050;-61
2023/08/31 01:17:31;;;;;;;4.65;1.42;;;11.00;99.90;;;;;;5108645;27;20097;-58
2023/08/31 01:19:59;;;;;;;2.50;1.27;;;10.90;99.90;;;;;;5128962;27;20051;-58
2023/08/31 01:22:43;;;;;;;2.15;1.30;;;11.00;99.90;;;;;;5127107;27;20049;-58
2023/08/31 01:25:11;;;;;;;2.90;1.17;;;11.00;99.90;;;;;;5134171;27;20134;-58
2023/08/31 01:27:38;;;;;;;2.65;1.05;;;10.90;99.90;;;;;;5133604;27;20507;-58
2023/08/31 01:30:04;;;;;;;8.98;1.20;;;10.90;99.90;;;;;;5131610;27;20051;-58
2023/08/31 01:32:31;;;;;;;4.60;2.10;;;10.90;99.90;;;;;;5131208;27;20073;-64
2023/08/31 01:34:57;;;;;;;7.63;2.97;;;10.90;99.90;;;;;;5110854;27;20049;-58
2023/08/31 01:37:43;;;;;;;4.78;2.53;;;10.90;99.90;;;;;;5133924;27;20500;-58
2023/08/31 01:40:26;;;;;;;3.03;1.40;;;10.90;99.90;;;;;;5128580;27;20050;-58
2023/08/31 01:42:52;;;;;;;4.72;1.33;;;10.80;99.90;;;;;;5132299;27;20412;-59
2023/08/31 01:45:22;;;;;;;3.17;1.15;;;10.80;99.90;;;;;;5128011;27;20416;-58
2023/08/31 01:47:48;;;;;;;1.95;1.00;;;10.80;99.90;;;;;;5134859;27;20082;-58
2023/08/31 01:50:14;;;;;;;5.75;1.98;;;10.80;99.90;;;;;;5130085;27;20172;-59
2023/08/31 01:52:40;;;;;;;3.95;1.42;;;10.80;99.90;;;;;;5129797;27;20145;-58
2023/08/31 01:55:10;;;;;;;2.20;1.10;;;10.90;99.90;;;;;;5131768;27;20619;-58
2023/08/31 01:57:35;;;;;;;4.22;1.55;;;10.70;99.90;;;;;;5127728;27;20715;-58
2023/08/31 02:00:01;;;;;;;1.75;1.33;;;10.70;99.90;;;;;;5114911;27;20051;-58
2023/08/31 02:02:27;;;;;;;2.50;1.13;;;10.70;99.90;;;;;;5128264;27;20168;-58
2023/08/31 02:04:52;;;;;;;1.88;1.23;;;10.70;99.90;;;;;;5132514;27;20580;-58
2023/08/31 02:07:19;;;;;;;1.67;1.02;;;10.60;99.90;;;;;;5130378;27;20149;-57
2023/08/31 02:09:44;;;;;;;5.15;2.13;;;10.50;99.90;;;;;;5129842;27;20689;-63
2023/08/31 02:12:10;;;;;;;5.65;1.30;;;10.50;99.90;;;;;;5134830;27;20093;-57
2023/08/31 02:14:36;;;;;;;3.75;1.15;;;10.50;99.90;;;;;;5129735;27;21178;-57
2023/08/31 02:17:02;;;;;;;4.35;1.88;;;10.50;99.90;;;;;;5131155;27;20055;-57
2023/08/31 02:19:27;;;;;;;1.77;1.05;;;10.50;99.90;;;;;;5131487;27;20055;-57
2023/08/31 02:21:54;;;;;;;5.18;1.60;;;10.50;99.90;;;;;;5128398;27;20101;-57
2023/08/31 02:24:20;;;;;;;2.38;1.40;;;10.40;99.90;;;;;;5129799;27;20055;-59
2023/08/31 02:26:45;;;;;;;4.70;1.63;;;10.50;99.90;;;;;;5130178;27;20103;-57
2023/08/31 02:29:11;;;;;;;3.78;1.20;;;10.40;99.90;;;;;;5135626;27;20038;-59
2023/08/31 02:31:38;;;;;;;4.93;1.63;;;10.40;99.90;;;;;;5114899;27;20051;-57
2023/08/31 02:34:04;;;;;;;3.22;1.20;;;10.40;99.90;;;;;;5136967;27;20047;-58
2023/08/31 02:36:29;;;;;;;3.33;1.33;;;10.30;99.90;;;;;;5133623;27;20111;-57
2023/08/31 02:38:56;;;;;;;4.80;2.03;;;10.40;99.90;;;;;;5128047;27;20047;-57
2023/08/31 02:41:22;;;;;;;2.45;1.45;;;10.30;99.90;;;;;;5131595;27;20062;-57
2023/08/31 02:43:51;;;;;;;3.20;1.00;;;10.30;99.90;;;;;;5128506;27;20051;-58
2023/08/31 02:46:17;;;;;;;2.03;1.60;;;10.30;99.90;;;;;;5132813;27;20484;-57
2023/08/31 02:48:44;;;;;;;4.30;1.30;;;10.20;99.90;;;;;;5130207;27;20104;-57
2023/08/31 02:51:09;;;;;;;1.83;1.33;;;10.30;99.90;;;;;;5129840;27;20810;-57
2023/08/31 02:53:35;;;;;;;2.47;1.30;;;10.20;99.90;;;;;;5130775;27;20058;-57
2023/08/31 02:56:01;;;;;;;3.40;1.00;;;10.20;99.90;;;;;;5108848;27;20178;-57
2023/08/31 02:58:27;;;;;;;1.38;0.95;;;10.20;99.90;;;;;;5122477;27;20089;-56
2023/08/31 03:00:53;;;;;;;2.70;1.30;;;10.20;99.90;;;;;;5130494;27;20071;-57
2023/08/31 03:03:19;;;;;;;2.13;1.08;;;10.10;99.90;;;;;;5131214;27;20681;-57
2023/08/31 03:05:45;;;;;;;2.00;1.08;;;10.20;99.90;;;;;;5127618;27;20055;-57
2023/08/31 03:08:11;;;;;;;4.18;1.05;;;10.20;99.90;;;;;;5128211;27;20047;-56
2023/08/31 03:10:38;;;;;;;1.52;1.23;;;10.20;99.90;;;;;;5129036;27;20055;-57
2023/08/31 03:13:04;;;;;;;5.50;1.48;;;10.10;99.90;;;;;;5133255;27;20795;-57
2023/08/31 03:15:31;;;;;;;4.32;1.58;;;10.10;99.90;;;;;;5113095;27;21231;-57
2023/08/31 03:17:57;;;;;;;1.77;1.35;;;10.10;99.90;;;;;;5125937;27;20479;-57
2023/08/31 03:20:23;;;;;;;2.22;1.33;;;10.10;99.90;;;;;;5130411;27;20053;-57
2023/08/31 03:22:48;;;;;;;1.73;1.30;;;10.10;99.90;;;;;;5128307;27;20446;-58
2023/08/31 03:25:14;;;;;;;4.43;1.20;;;10.10;99.90;;;;;;5129337;27;20408;-59
2023/08/31 03:27:40;;;;;;;2.17;1.13;;;10.10;99.90;;;;;;5131452;27;20055;-62
2023/08/31 03:30:10;;;;;;;4.90;2.08;;;10.10;99.90;;;;;;5126909;27;20055;-57
2023/08/31 03:32:35;;;;;;;2.08;1.25;;;10.10;99.90;;;;;;5130449;27;20439;-58
2023/08/31 03:35:05;;;;;;;3.75;1.20;;;10.10;99.90;;;;;;5126892;27;20108;-59
2023/08/31 03:37:30;;;;;;;4.90;1.17;;;10.00;99.90;;;;;;5132938;27;20112;-58
2023/08/31 03:39:56;;;;;;;3.28;1.20;;;9.90;99.90;;;;;;5127579;27;20051;-57
2023/08/31 03:42:21;;;;;;;3.80;0.90;;;10.00;99.90;;;;;;5128957;27;20134;-57
2023/08/31 03:44:47;;;;;;;1.65;1.00;;;10.00;99.90;;;;;;5129920;27;20801;-57
2023/08/31 03:47:13;;;;;;;3.90;1.40;;;10.00;99.90;;;;;;5109413;27;20051;-57
2023/08/31 03:49:38;;;;;;;2.85;1.50;;;10.10;99.90;;;;;;5131806;27;20054;-57
2023/08/31 03:52:04;;;;;;;2.47;1.67;;;10.10;99.90;;;;;;5108700;28;20059;-58
2023/08/31 03:54:30;;;;;;;3.10;2.08;;;10.10;99.90;;;;;;5112341;27;20095;-59
2023/08/31 03:56:56;;;;;;;1.35;1.25;;;10.10;99.90;;;;;;5125835;27;20146;-62
2023/08/31 03:59:21;;;;;;;2.40;1.73;;;10.10;99.90;;;;;;5129412;27;20509;-63
2023/08/31 04:01:47;;;;;;;2.40;1.70;;;10.20;99.90;;;;;;5127718;27;20062;-64
2023/08/31 04:04:13;;;;;;;5.70;1.95;;;10.30;99.90;;;;;;5127942;27;20051;-62
2023/08/31 04:06:38;;;;;;;4.47;2.47;;;10.30;99.90;;;;;;5112406;27;20059;-63
2023/08/31 04:09:04;;;;;;;5.38;1.70;;;10.30;99.90;;;;;;5127290;27;20119;-64
2023/08/31 04:11:30;;;;;;;2.03;1.90;;;10.40;99.90;;;;;;5131077;27;20062;-63
2023/08/31 04:13:55;;;;;;;3.05;1.83;;;10.40;99.90;;;;;;5127423;27;20051;-62
2023/08/31 04:16:21;;;;;;;2.78;1.83;;;10.40;99.90;;;;;;5127791;27;20054;-61
2023/08/31 04:18:51;;;;;;;2.95;2.17;;;10.40;99.90;;;;;;5128759;27;20051;-57
2023/08/31 04:21:18;;;;;;;6.28;2.05;;;10.40;99.90;;;;;;5127714;27;20059;-57
2023/08/31 04:23:43;;;;;;;4.15;2.20;;;10.50;99.90;;;;;;5129522;27;20147;-58
2023/08/31 04:26:10;;;;;;;4.03;2.58;;;10.40;99.90;;;;;;5128507;27;20497;-58
2023/08/31 04:28:35;;;;;;;3.85;2.20;;;10.50;99.90;;;;;;5068506;27;1151978;-57
2023/08/31 04:31:04;;;;;;;3.05;2.30;;;10.40;99.90;;;;;;5126094;27;20100;-58
2023/08/31 04:33:29;;;;;;;2.28;2.03;;;10.40;99.90;;;;;;5130179;27;21618;-58
2023/08/31 04:35:55;;;;;;;2.20;2.03;;;10.30;99.90;;;;;;5126755;27;20043;-59
2023/08/31 04:38:21;;;;;;;4.32;2.22;;;10.40;99.90;;;;;;5131276;27;20199;-60
2023/08/31 04:40:46;;;;;;;2.83;2.50;;;10.30;99.90;;;;;;5126380;27;20047;-59
2023/08/31 04:43:13;;;;;;;4.53;2.75;;;10.30;99.90;;;;;;5127193;27;20051;-58
2023/08/31 04:45:39;;;;;;;3.53;2.42;;;10.40;99.90;;;;;;5127846;27;20083;-58
2023/08/31 04:48:05;;;;;;;3.65;2.10;;;10.30;99.90;;;;;;5125058;27;20078;-58
2023/08/31 04:50:30;;;;;;;4.45;1.98;;;10.40;99.90;;;;;;5129314;27;20116;-59
2023/08/31 04:52:56;;;;;;;3.35;1.90;;;10.40;99.90;;;;;;5126272;27;20408;-58
2023/08/31 04:55:22;;;;;;;5.20;2.85;;;10.40;99.90;;;;;;5129633;27;20055;-57
2023/08/31 04:57:47;;;;;;;2.83;2.00;;;10.40;99.90;;;;;;5133766;27;20497;-57
2023/08/31 05:00:13;;;;;;;5.53;3.15;;;10.40;99.90;;;;;;5131037;27;20043;-58
2023/08/31 05:02:39;;;;;;;3.17;2.22;;;10.50;99.90;;;;;;5133620;27;20057;-58
2023/08/31 05:05:05;;;;;;;4.07;2.15;;;10.50;99.90;;;;;;5132298;27;20039;-59
2023/08/31 05:07:31;;;;;;;2.47;1.90;;;10.50;99.90;;;;;;5109409;27;20932;-58
2023/08/31 05:09:57;;;;;;;3.35;2.65;;;10.40;99.90;;;;;;5134047;27;20054;-60
2023/08/31 05:12:22;;;;;;;2.92;2.42;;;10.50;99.90;;;;;;5129661;27;20058;-58
2023/08/31 05:14:48;;;;;;;3.83;2.15;;;10.50;99.90;;;;;;5131362;27;20145;-58
2023/08/31 05:17:14;;;;;;;2.35;2.15;;;10.50;99.90;;;;;;5131607;27;20060;-58
2023/08/31 05:19:39;;;;;;;4.13;2.28;;;10.50;99.90;;;;;;5128063;27;20047;-57
2023/08/31 05:22:05;;;;;;;4.32;3.05;;;10.50;99.90;;;;;;5133831;27;20754;-58
2023/08/31 05:24:34;;;;;;;3.25;2.88;;;10.50;99.90;;;;;;5129803;27;20066;-58
2023/08/31 05:26:59;;;;;;;4.15;2.80;;;10.50;99.90;;;;;;5132578;27;20059;-58
2023/08/31 05:29:25;;;;;;;5.88;3.70;;;10.60;99.90;;;;;;5127939;27;20103;-57
2023/08/31 05:31:52;;;;;;;7.20;4.20;;;10.70;99.90;;;;;;5128332;27;20061;-58
2023/08/31 05:34:22;;;;;;;9.75;4.20;;;10.70;99.90;;;;;;5132208;27;20043;-59
2023/08/31 05:36:48;;;;;;;3.90;3.33;;;10.80;99.90;;;;;;5130107;27;20145;-58
2023/08/31 05:39:16;;;;;;;6.22;3.67;;;10.80;99.90;;;;;;5133095;27;20059;-58
2023/08/31 05:41:41;;;;;;;4.68;2.92;;;11.00;99.90;;;;;;5129021;27;20047;-58
2023/08/31 05:44:11;;;;;;;4.55;4.00;;;11.00;99.90;;;;;;5129867;27;20385;-58
2023/08/31 05:46:38;;;;;;;10.50;4.20;;;11.20;99.90;;;;;;5110471;27;20055;-60
2023/08/31 05:49:04;;;;;;;6.60;3.58;;;11.30;99.90;;;;;;5126592;27;20082;-59
2023/08/31 05:51:29;;;;;;;10.50;4.57;;;11.40;99.90;;;;;;5134416;27;21468;-59
2023/08/31 05:53:55;;;;;;;5.93;3.70;;;11.50;99.90;;;;;;5126632;27;20047;-60
2023/08/31 05:56:21;;;;;;;4.05;3.28;;;11.60;99.90;;;;;;5127988;27;20541;-63
2023/08/31 05:58:47;;;;;;;5.22;3.40;;;11.70;99.90;;;;;;5128384;27;20058;-58
2023/08/31 06:01:13;;;;;;;5.28;4.13;;;11.70;99.90;;;;;;5116385;27;20119;-57
2023/08/31 06:03:38;;;;;;;3.70;3.00;;;11.90;99.90;;;;;;5131394;27;20062;-58
2023/08/31 06:06:04;;;;;;;8.10;3.35;;;11.90;99.90;;;;;;5129339;27;20131;-60
2023/08/31 06:08:30;;;;;;;4.60;3.10;;;12.00;99.90;;;;;;5128331;27;21528;-61
2023/08/31 06:10:56;;;;;;;6.68;2.97;;;12.10;99.90;;;;;;5131569;27;20146;-64
2023/08/31 06:13:22;;;;;;;5.85;2.63;;;12.20;99.90;;;;;;5127442;27;20128;-58
2023/08/31 06:15:47;;;;;;;2.38;1.98;;;12.30;99.90;;;;;;5132446;27;20055;-58
2023/08/31 06:18:13;;;;;;;4.30;2.42;;;12.40;99.90;;;;;;5128652;27;20054;-58
2023/08/31 06:20:39;;;;;;;4.18;2.40;;;12.60;99.90;;;;;;5129302;27;20149;-57
2023/08/31 06:23:05;;;;;;;3.80;2.35;;;12.70;99.90;;;;;;5112244;27;20061;-57
2023/08/31 06:25:31;;;;;;;4.10;2.95;;;12.90;99.90;;;;;;5125287;27;20051;-57
2023/08/31 06:27:57;;;;;;;2.58;1.98;;;13.10;99.90;;;;;;5133010;27;20408;-58
2023/08/31 06:30:23;;;;;;;3.60;2.30;;;13.20;99.90;;;;;;5127311;27;20492;-57
2023/08/31 06:32:50;;;;;;;3.55;1.75;;;13.50;99.90;;;;;;5128566;27;20042;-57
2023/08/31 06:35:16;;;;;;;9.82;2.17;;;13.60;99.90;;;;;;5125861;27;20074;-56
2023/08/31 06:37:42;;;;;;;3.30;1.52;;;13.70;99.90;;;;;;5123682;27;20084;-57
2023/08/31 06:42:37;;;;;;;2.17;1.75;;;14.20;99.90;;;;;;5123398;27;20065;-57
2023/08/31 06:47:33;;;;;;;7.30;2.28;;;14.60;99.90;;;;;;5122657;27;20108;-58
2023/08/31 06:49:58;;;;;;;3.22;2.10;;;14.70;99.90;;;;;;5125988;27;20572;-66
2023/08/31 06:52:28;;;;;;;6.15;1.98;;;14.90;99.90;;;;;;5120320;27;20138;-66
2023/08/31 06:54:57;;;;;;;2.10;1.45;;;15.00;99.90;;;;;;5112243;27;20062;-66
2023/08/31 06:57:25;;;;;;;4.28;1.63;;;15.10;99.90;;;;;;5127155;27;20061;-65
2023/08/31 06:59:51;;;;;;;3.00;1.30;;;15.30;99.90;;;;;;5132282;27;20500;-64
2023/08/31 07:02:19;;;;;;;1.75;1.33;;;15.30;99.90;;;;;;5122261;27;20054;-66
2023/08/31 07:04:45;;;;;;;2.13;1.40;;;15.40;99.90;;;;;;5127062;27;20515;-65
2023/08/31 07:07:13;;;;;;;3.17;1.30;;;15.50;99.90;;;;;;5128280;27;20055;-66
2023/08/31 07:09:43;;;;;;;6.15;1.80;;;15.70;99.90;;;;;;5128514;27;20055;-68
2023/08/31 07:12:10;;;;;;;3.55;1.55;;;15.80;99.90;;;;;;5125855;27;20412;-68
2023/08/31 07:14:36;;;;;;;3.55;1.02;;;16.20;99.90;;;;;;5110201;27;20066;-67
2023/08/31 07:17:02;;;;;;;2.10;0.85;;;16.30;99.90;;;;;;5107577;27;20051;-66
2023/08/31 07:19:28;;;;;;;2.38;0.90;;;16.50;99.90;;;;;;5129451;27;20081;-58
2023/08/31 07:21:57;;;;;;;3.08;0.93;;;16.70;99.90;;;;;;5125636;27;20042;-58
2023/08/31 07:24:24;;;;;;;3.00;1.10;;;16.90;99.90;;;;;;5135839;27;20055;-57
2023/08/31 07:26:50;;;;;;;5.07;2.03;;;16.90;99.90;;;;;;5139102;27;20075;-57
2023/08/31 07:29:15;;;;;;;2.42;1.00;;;16.90;99.90;;;;;;5138920;27;20050;-56
2023/08/31 07:31:41;;;;;;;3.75;1.60;;;17.00;99.90;;;;;;5133403;27;20073;-58
2023/08/31 07:34:10;;;;;;;2.40;0.90;;;17.10;99.90;;;;;;5135200;27;20111;-57
2023/08/31 07:36:35;;;;;;;2.83;0.88;;;17.20;99.90;;;;;;5128829;27;20050;-57
2023/08/31 07:39:01;;;;;;;4.13;1.17;;;17.30;99.90;;;;;;5133448;27;20412;-60
2023/08/31 07:41:27;;;;;;;3.22;0.88;;;17.30;99.90;;;;;;5131169;27;20510;-62
2023/08/31 07:43:52;;;;;;;2.40;0.82;;;17.40;99.90;;;;;;5132132;27;20046;-58
2023/08/31 07:46:18;;;;;;;4.38;1.33;;;17.50;99.90;;;;;;5135308;27;20051;-60
2023/08/31 07:48:44;;;;;;;2.47;1.05;;;17.60;99.90;;;;;;5136381;27;20054;-59
2023/08/31 07:51:12;;;;;;;4.43;0.80;;;17.80;99.90;;;;;;5136355;27;20054;-58
2023/08/31 07:53:37;;;;;;;3.08;0.95;;;17.60;99.90;;;;;;5107026;27;20530;-58
2023/08/31 07:56:03;;;;;;;2.63;0.73;;;17.80;99.90;;;;;;5132271;27;20051;-59
2023/08/31 07:58:29;;;;;;;1.70;0.85;;;18.10;99.90;;;;;;5132005;27;20373;-58
2023/08/31 08:00:56;;;;;;;6.43;0.70;;;18.20;99.90;;;;;;5128172;27;20431;-58
2023/08/31 08:03:25;;;;;;;1.52;0.55;;;18.40;99.90;;;;;;5101318;27;20039;-61
2023/08/31 08:05:51;;;;;;;1.95;0.93;;;18.60;99.90;;;;;;5137487;27;20559;-62
2023/08/31 08:08:17;;;;;;;2.42;0.70;;;18.70;99.90;;;;;;5137395;27;20129;-58
2023/08/31 08:10:43;;;;;;;2.97;1.00;;;19.10;99.90;;;;;;5131727;27;20063;-58
2023/08/31 08:13:10;;;;;;;1.17;0.40;;;19.20;99.90;;;;;;5134545;27;20043;-58
2023/08/31 08:15:38;;;;;;;1.65;0.80;;;19.60;99.90;;;;;;5123002;27;20058;-58
2023/08/31 08:18:04;;;;;;;2.38;0.70;;;19.70;99.90;;;;;;5136424;27;20089;-60
2023/08/31 08:20:31;;;;;;;3.47;0.93;;;19.70;99.90;;;;;;5135423;27;21219;-59
2023/08/31 08:22:58;;;;;;;4.68;0.52;;;19.70;99.90;;;;;;5137565;27;20057;-58
2023/08/31 08:25:23;;;;;;;10.00;0.88;;;20.20;99.90;;;;;;5138143;27;20077;-59
2023/08/31 08:27:50;;;;;;;3.38;1.08;;;20.40;99.90;;;;;;5139533;27;20504;-58
2023/08/31 08:30:16;;;;;;;4.28;1.08;;;20.60;99.90;;;;;;5139191;27;20095;-62
2023/08/31 08:32:42;;;;;;;4.25;0.30;;;20.80;99.90;;;;;;5104018;27;20409;-59
2023/08/31 08:35:11;;;;;;;1.23;0.40;;;20.80;99.90;;;;;;5139338;27;20067;-68
2023/08/31 08:37:37;;;;;;;1.15;0.40;;;20.90;99.90;;;;;;5125107;27;20165;-60
2023/08/31 08:42:41;;;;;;;2.28;0.43;;;20.80;99.90;;;;;;5121596;27;20051;-70
2023/08/31 08:45:17;;;;;;;1.25;0.38;;;20.20;99.90;;;;;;5129910;27;20078;-67
2023/08/31 08:47:44;;;;;;;1.63;0.75;;;20.60;99.90;;;;;;5084092;27;1116613;-67
2023/08/31 08:50:12;;;;;;;1.55;0.60;;;21.00;99.90;;;;;;5108700;27;20556;-71
2023/08/31 08:52:41;;;;;;;2.00;0.60;;;20.40;99.90;;;;;;5129767;27;20492;-59
2023/08/31 08:55:11;;;;;;;2.35;0.40;;;20.20;99.90;;;;;;5117890;27;20099;-65
2023/08/31 08:57:36;;;;;;;0.50;0.20;;;19.90;99.90;;;;;;5132422;27;20764;-59
2023/08/31 09:00:03;;;;;;;1.65;0.70;;;20.50;99.90;;;;;;5101965;27;20066;-59
2023/08/31 09:02:29;;;;;;;2.55;0.57;;;20.50;99.90;;;;;;5135467;27;20093;-63
2023/08/31 09:04:55;;;;;;;7.32;0.70;;;20.10;99.90;;;;;;5144403;27;20065;-59
2023/08/31 09:07:21;;;;;;;5.78;0.47;;;20.80;99.90;;;;;;5115399;27;20486;-59
2023/08/31 09:09:52;;;;;;;0.60;0.47;;;21.10;99.90;;;;;;5140674;27;20055;-59
2023/08/31 09:12:23;;;;;;;3.17;0.43;;;20.70;99.90;;;;;;5135691;27;20082;-63
2023/08/31 09:17:39;;;;;;;2.13;0.60;;;21.00;99.90;;;;;;5118098;27;20531;-59
2023/08/31 09:20:05;;;;;;;1.02;0.60;;;21.90;99.90;;;;;;5113666;27;20054;-58
2023/08/31 09:22:32;;;;;;;1.15;0.30;;;21.50;99.90;;;;;;5115576;27;20063;-64
2023/08/31 09:24:58;;;;;;;2.75;0.40;;;21.60;99.90;;;;;;5132405;27;20149;-65
2023/08/31 09:27:24;;;;;;;2.35;0.60;;;22.40;99.90;;;;;;5128253;27;20158;-66
2023/08/31 09:29:54;;;;;;;1.92;0.40;;;22.30;99.90;;;;;;5129005;27;20047;-64
2023/08/31 09:32:21;;;;;;;2.50;0.55;;;22.60;99.90;;;;;;5132061;27;20107;-59
2023/08/31 09:34:48;;;;;;;1.20;0.25;;;21.30;99.90;;;;;;5124730;27;20047;-63
2023/08/31 09:37:15;;;;;;;2.83;0.63;;;20.50;99.90;;;;;;5117168;27;20051;-58
2023/08/31 09:39:42;;;;;;;1.30;0.30;;;19.90;99.90;;;;;;5128222;27;20057;-58
2023/08/31 09:42:11;;;;;;;1.60;0.20;;;19.00;99.90;;;;;;5131226;27;20074;-58
2023/08/31 09:44:42;;;;;;;2.00;0.32;;;18.60;99.90;;;;;;5122162;27;20523;-58
2023/08/31 09:47:13;;;;;;;1.65;0.17;;;18.00;99.90;;;;;;5123532;27;20053;-59
2023/08/31 09:49:41;;;;;;;1.00;0.50;;;17.90;99.90;;;;;;5137677;27;20442;-59
2023/08/31 09:52:12;;;;;;;1.13;0.35;;;17.50;99.90;;;;;;5124535;27;20058;-59
2023/08/31 09:54:38;;;;;;;1.50;0.30;;;17.50;99.90;;;;;;5132281;27;20066;-59
2023/08/31 09:57:10;;;;;;;0.35;0.15;;;17.20;99.90;;;;;;5130493;27;20141;-58
2023/08/31 09:59:45;;;;;;;1.30;0.47;;;17.60;99.90;;;;;;5122492;27;20129;-58
2023/08/31 10:02:13;;;;;;;1.45;0.50;;;18.20;99.90;;;;;;5129120;27;20141;-57
2023/08/31 10:04:39;;;;;;;2.38;0.45;;;18.50;99.90;;;;;;5127302;27;20039;-58
2023/08/31 10:07:10;;;;;;;0.98;0.32;;;19.00;99.90;;;;;;5135318;27;20051;-58
2023/08/31 10:09:36;;;;;;;2.63;0.52;;;19.40;99.90;;;;;;5111718;27;20080;-58
2023/08/31 10:12:05;;;;;;;1.08;0.40;;;20.20;99.90;;;;;;5110997;27;20083;-59
2023/08/31 10:14:31;;;;;;;1.85;0.77;;;20.80;99.90;;;;;;5118215;27;20411;-58
2023/08/31 10:16:58;;;;;;;2.05;0.40;;;20.90;99.90;;;;;;5127475;27;20059;-59
2023/08/31 10:19:23;;;;;;;0.70;0.20;;;21.00;99.90;;;;;;5129641;27;20058;-59
2023/08/31 10:21:49;;;;;;;2.45;0.32;;;20.90;99.90;;;;;;5130553;27;20050;-59
2023/08/31 10:24:15;;;;;;;1.98;0.68;;;20.60;99.90;;;;;;5109640;27;20101;-58
2023/08/31 10:26:41;;;;;;;2.63;0.75;;;20.80;99.90;;;;;;5127629;27;20500;-59
2023/08/31 10:29:27;;;;;;;5.40;1.15;;;21.00;99.90;;;;;;5123414;27;20086;-58
2023/08/31 10:31:53;;;;;;;1.30;0.40;;;20.90;99.90;;;;;;5125244;27;20048;-59
2023/08/31 10:34:37;;;;;;;10.75;1.38;;;19.80;99.90;;;;;;5100094;27;20718;-61
2023/08/31 10:39:40;;;;;;;3.40;0.40;;;18.90;99.90;;;;;;5124317;27;20496;-67
2023/08/31 10:44:35;;;;;;;0.60;0.60;;;18.60;99.90;;;;;;5128355;27;20467;-61
2023/08/31 10:47:04;;;;;;;1.48;0.50;;;18.00;99.90;;;;;;5101077;27;20062;-59
2023/08/31 10:49:32;;;;;;;1.17;0.40;;;17.90;99.90;;;;;;5095791;27;20047;-59
2023/08/31 10:54:35;;;;;;;0.88;0.50;;;18.30;99.90;;;;;;5112577;27;20058;-58
2023/08/31 10:57:04;;;;;;;1.52;0.43;;;18.70;99.90;;;;;;5108848;27;20404;-59
2023/08/31 10:59:51;;;;;;;1.35;0.40;;;19.30;99.90;;;;;;5121626;27;20473;-58
2023/08/31 11:02:41;;;;;;;1.55;0.25;;;19.60;99.90;;;;;;5112173;27;20722;-58
2023/08/31 11:05:10;;;;;;;0.90;0.50;;;20.00;99.90;;;;;;5131367;27;20066;-58
2023/08/31 11:07:40;;;;;;;0.90;0.25;;;20.40;99.90;;;;;;5125299;27;20046;-58
2023/08/31 11:12:32;;;;;;;1.75;0.32;;;21.20;99.90;;;;;;5129495;27;20107;-58
2023/08/31 11:14:58;;;;;;;0.52;0.40;;;21.80;99.90;;;;;;5131395;27;20051;-59
2023/08/31 11:17:24;;;;;;;3.08;0.73;;;21.20;99.90;;;;;;5110342;27;20070;-58
2023/08/31 11:19:50;;;;;;;0.75;0.20;;;20.50;99.90;;;;;;5103838;27;20039;-59
2023/08/31 11:22:16;;;;;;;1.10;0.35;;;20.00;99.90;;;;;;5114148;27;20058;-58
2023/08/31 11:24:42;;;;;;;2.90;0.50;;;19.80;99.90;;;;;;5110720;27;20061;-58
2023/08/31 11:27:10;;;;;;;0.50;0.30;;;19.30;99.90;;;;;;5129949;27;20058;-59
2023/08/31 11:29:38;;;;;;;0.70;0.30;;;19.10;99.90;;;;;;5129985;27;20049;-58
2023/08/31 11:32:04;;;;;;;0.88;0.43;;;21.80;99.90;;;;;;5130254;27;20047;-58
2023/08/31 11:34:30;;;;;;;1.15;0.40;;;24.30;99.90;;;;;;5129891;27;20847;-59
2023/08/31 11:36:56;;;;;;;1.98;0.45;;;25.50;99.90;;;;;;5124151;27;20108;-58
2023/08/31 11:39:23;;;;;;;0.50;0.50;;;27.40;99.90;;;;;;5083629;28;20048;-59
2023/08/31 11:41:49;;;;;;;1.40;0.65;;;29.00;99.90;;;;;;5125340;27;20191;-59
2023/08/31 11:44:16;;;;;;;0.45;0.35;;;27.80;99.90;;;;;;5135717;27;20138;-59
2023/08/31 11:46:44;;;;;;;1.33;0.65;;;26.40;99.90;;;;;;5125752;27;20043;-59
2023/08/31 11:49:11;;;;;;;2.15;0.63;;;26.20;99.90;;;;;;5119241;27;20134;-59
2023/08/31 11:51:39;;;;;;;2.38;0.32;;;26.90;99.90;;;;;;5135043;27;20176;-58
2023/08/31 11:54:05;;;;;;;2.42;0.52;;;25.00;99.90;;;;;;5127963;27;20110;-59
2023/08/31 11:56:46;;;;;;;1.35;0.60;;;23.70;99.90;;;;;;5132082;27;20062;-58
2023/08/31 11:59:14;;;;;;;0.82;0.45;;;23.00;99.90;;;;;;5129644;27;20074;-58
2023/08/31 12:01:42;;;;;;;0.93;0.35;;;21.50;99.90;;;;;;5107498;27;20058;-59
2023/08/31 12:04:14;;;;;;;3.38;0.32;;;20.80;99.90;;;;;;5123829;27;20496;-59
2023/08/31 12:06:40;;;;;;;1.17;0.47;;;20.40;99.90;;;;;;5126938;27;20117;-58
2023/08/31 12:11:32;;;;;;;1.52;0.30;;;19.40;99.90;;;;;;5126140;27;21627;-58
2023/08/31 12:14:03;;;;;;;1.27;0.50;;;19.40;99.90;;;;;;5129559;27;20054;-58
2023/08/31 12:16:36;;;;;;;1.52;0.38;;;19.60;99.90;;;;;;5112653;27;20463;-58
2023/08/31 12:19:05;;;;;;;1.85;0.20;;;21.70;99.90;;;;;;5112953;27;20051;-59
2023/08/31 12:21:33;;;;;;;1.33;0.52;;;20.40;99.90;;;;;;5125516;27;20063;-58
2023/08/31 12:23:59;;;;;;;2.50;0.75;;;19.40;99.90;;;;;;5108238;28;20055;-58
2023/08/31 12:26:26;;;;;;;1.55;0.70;;;18.40;99.90;;;;;;5123046;27;20107;-58
2023/08/31 12:28:52;;;;;;;0.82;0.50;;;18.00;99.90;;;;;;5093074;27;20047;-58
2023/08/31 12:31:18;;;;;;;2.97;0.80;;;17.60;99.90;;;;;;5110430;27;20050;-58
2023/08/31 12:33:43;;;;;;;2.55;0.50;;;17.60;99.90;;;;;;5126538;27;20054;-59
2023/08/31 12:36:10;;;;;;;2.55;0.73;;;17.70;99.90;;;;;;5125386;27;20063;-61
2023/08/31 12:38:36;;;;;;;1.48;0.70;;;17.90;99.90;;;;;;5133137;27;20132;-59
2023/08/31 12:41:02;;;;;;;0.80;0.60;;;18.10;99.90;;;;;;5124202;27;20207;-59
2023/08/31 12:43:28;;;;;;;2.85;0.90;;;19.20;99.90;;;;;;5128282;27;20047;-58
2023/08/31 12:45:57;;;;;;;1.70;0.88;;;20.80;99.90;;;;;;5120907;27;20051;-59
2023/08/31 12:48:23;;;;;;;3.70;0.82;;;21.90;99.90;;;;;;5109370;28;20452;-59
2023/08/31 12:50:49;;;;;;;3.45;0.98;;;22.40;99.90;;;;;;5127595;27;20051;-59
2023/08/31 12:53:15;;;;;;;4.47;1.00;;;21.80;99.90;;;;;;5119033;27;20058;-58
2023/08/31 12:55:41;;;;;;;1.20;0.60;;;21.10;99.90;;;;;;5129510;27;20070;-59
2023/08/31 12:58:10;;;;;;;1.00;0.52;;;20.30;99.90;;;;;;5108788;28;20552;-59
2023/08/31 13:00:36;;;;;;;0.70;0.60;;;20.00;99.90;;;;;;5125516;27;20050;-59
2023/08/31 13:03:03;;;;;;;1.60;0.57;;;19.50;99.90;;;;;;5130470;27;20051;-59
2023/08/31 13:05:28;;;;;;;2.08;0.80;;;19.10;99.90;;;;;;5122993;27;20158;-58
2023/08/31 13:07:55;;;;;;;4.35;0.88;;;18.50;99.90;;;;;;5052074;27;1129205;-58